createdAt,value
2022-12-11T00:00:50.509Z,99329.03
2022-12-11T00:03:39.177Z,99333.00
2022-12-11T00:06:27.288Z,99321.75
2022-12-11T00:09:17.243Z,99332.09
2022-12-11T00:12:07.397Z,99337.03
2022-12-11T00:14:55.339Z,99337.72
2022-12-11T00:17:43.344Z,99336.19
2022-12-11T00:20:31.338Z,99339.50
2022-12-11T00:23:19.288Z,99330.88
2022-12-11T00:26:10.275Z,99304.78
2022-12-11T00:28:59.056Z,99334.41
2022-12-11T00:31:47.033Z,99333.78
2022-12-11T00:34:35.055Z,99340.88
2022-12-11T00:37:23.630Z,99339.41
2022-12-11T00:40:12.416Z,99339.16
2022-12-11T00:43:02.049Z,99338.88
2022-12-11T00:45:50.084Z,99339.06
2022-12-11T00:48:38.197Z,99333.34
2022-12-11T00:51:26.208Z,99330.69
2022-12-11T00:54:14.603Z,99322.31
2022-12-11T00:57:02.589Z,99324.72
2022-12-11T00:59:51.872Z,99323.75
2022-12-11T01:02:39.992Z,99301.47
2022-12-11T01:05:28.428Z,99329.63
2022-12-11T01:08:16.438Z,99325.34
2022-12-11T01:11:07.121Z,99322.66
2022-12-11T01:13:55.078Z,99328.84
2022-12-11T01:16:44.413Z,99338.34
2022-12-11T01:19:33.261Z,99337.91
2022-12-11T01:22:21.863Z,99338.50
2022-12-11T01:25:10.912Z,99337.56
2022-12-11T01:27:58.997Z,99332.31
2022-12-11T01:30:47.217Z,99330.91
2022-12-11T01:33:36.590Z,99321.88
2022-12-11T01:36:24.690Z,99324.44
2022-12-11T01:39:12.576Z,99335.13
2022-12-11T01:42:01.937Z,99333.53
2022-12-11T01:45:27.441Z,99325.75
2022-12-11T01:48:19.402Z,99326.69
2022-12-11T01:51:08.711Z,99343.66
2022-12-11T01:54:01.629Z,99334.44
2022-12-11T01:56:52.925Z,99327.63
2022-12-11T01:59:44.150Z,99323.75
2022-12-11T02:02:32.827Z,99329.19
2022-12-11T02:05:20.845Z,99300.47
2022-12-11T02:08:10.575Z,99327.56
2022-12-11T02:11:08.132Z,99334.66
2022-12-11T02:14:03.954Z,99322.28
2022-12-11T02:16:59.023Z,99332.34
2022-12-11T02:19:58.555Z,99330.78
2022-12-11T02:23:07.052Z,99343.63
2022-12-11T02:26:07.833Z,99350.53
2022-12-11T02:28:59.707Z,99346.91
2022-12-11T02:31:52.767Z,99348.22
2022-12-11T02:34:44.011Z,99341.44
2022-12-11T02:37:36.974Z,99339.25
2022-12-11T02:40:29.147Z,99340.34
2022-12-11T02:43:19.017Z,99337.03
2022-12-11T02:46:09.500Z,99337.38
2022-12-11T02:48:58.788Z,99337.22
2022-12-11T02:51:46.826Z,99337.13
2022-12-11T02:54:38.592Z,99336.50
2022-12-11T02:57:32.648Z,99332.34
2022-12-11T03:00:21.529Z,99338.09
2022-12-11T03:03:10.818Z,99337.13
2022-12-11T03:05:58.798Z,99342.84
2022-12-11T03:08:46.880Z,99348.25
2022-12-11T03:11:34.893Z,99340.81
2022-12-11T03:14:22.963Z,99343.53
2022-12-11T03:17:16.047Z,99341.31
2022-12-11T03:20:13.773Z,99341.94
2022-12-11T03:23:10.346Z,99341.31
2022-12-11T03:26:02.311Z,99339.28
2022-12-11T03:28:54.134Z,99335.13
2022-12-11T03:31:45.017Z,99297.63
2022-12-11T03:34:42.312Z,99246.66
2022-12-11T03:37:36.328Z,99336.88
2022-12-11T03:40:26.617Z,99341.50
2022-12-11T03:43:15.152Z,99338.81
2022-12-11T03:46:03.579Z,99338.16
2022-12-11T03:48:52.827Z,99343.06
2022-12-11T03:51:42.459Z,99341.34
2022-12-11T03:54:32.302Z,99336.28
2022-12-11T03:57:26.193Z,99342.75
2022-12-11T04:00:17.068Z,99352.13
2022-12-11T04:03:14.592Z,99341.34
2022-12-11T04:06:02.835Z,99340.84
2022-12-11T04:08:50.857Z,99341.66
2022-12-11T04:11:42.696Z,99340.84
2022-12-11T04:14:48.468Z,99337.06
2022-12-11T04:17:55.109Z,99341.78
2022-12-11T04:21:00.459Z,99337.53
2022-12-11T04:24:06.554Z,99343.72
2022-12-11T04:26:55.925Z,99335.31
2022-12-11T04:29:43.896Z,99349.28
2022-12-11T04:32:31.866Z,99342.75
2022-12-11T04:35:20.034Z,99348.81
2022-12-11T04:38:07.993Z,99339.94
2022-12-11T04:41:00.017Z,99339.75
2022-12-11T04:43:49.974Z,99344.84
2022-12-11T04:46:37.986Z,99338.31
2022-12-11T04:49:26.104Z,99340.84
2022-12-11T04:52:14.118Z,99339.59
2022-12-11T04:55:02.042Z,99343.25
2022-12-11T04:57:50.228Z,99334.84
2022-12-11T05:00:41.049Z,99333.41
2022-12-11T05:03:28.989Z,99340.72
2022-12-11T05:06:17.113Z,99334.84
2022-12-11T05:09:05.173Z,99304.78
2022-12-11T05:11:53.340Z,99332.59
2022-12-11T05:14:41.287Z,99343.09
2022-12-11T05:17:30.548Z,99344.03
2022-12-11T05:20:19.192Z,99341.34
2022-12-11T05:23:07.390Z,99332.91
2022-12-11T05:25:55.786Z,99326.41
2022-12-11T05:28:44.388Z,99324.03
2022-12-11T05:31:32.354Z,99325.00
2022-12-11T05:34:21.822Z,99329.91
2022-12-11T05:37:10.052Z,99334.19
2022-12-11T05:39:57.986Z,99324.03
2022-12-11T05:42:46.965Z,99323.72
2022-12-11T05:45:34.999Z,99314.66
2022-12-11T05:48:23.551Z,99311.47
2022-12-11T05:51:15.114Z,99296.72
2022-12-11T05:54:03.537Z,99301.16
2022-12-11T05:56:52.442Z,99298.59
2022-12-11T05:59:40.486Z,99292.41
2022-12-11T06:02:28.545Z,99300.34
2022-12-11T06:05:16.638Z,99290.34
2022-12-11T06:08:06.310Z,99297.47
2022-12-11T06:10:54.274Z,99289.00
2022-12-11T06:13:42.307Z,99291.56
2022-12-11T06:16:30.408Z,99282.03
2022-12-11T06:19:18.960Z,99296.13
2022-12-11T06:22:06.934Z,99295.34
2022-12-11T06:24:56.226Z,99298.22
2022-12-11T06:27:44.197Z,99295.69
2022-12-11T06:30:37.637Z,99289.16
2022-12-11T06:33:27.702Z,99285.81
2022-12-11T06:36:17.516Z,99264.22
2022-12-11T06:39:05.502Z,99288.47
2022-12-11T06:41:54.795Z,99290.84
2022-12-11T06:44:42.745Z,99280.69
2022-12-11T06:47:31.627Z,99280.53
2022-12-11T06:50:19.643Z,99283.50
2022-12-11T06:53:07.640Z,99285.00
2022-12-11T06:55:55.658Z,99291.28
2022-12-11T06:58:45.539Z,99281.28
2022-12-11T07:01:33.585Z,99280.50
2022-12-11T07:04:02.078Z,99284.84
2022-12-11T07:06:30.360Z,99277.91
2022-12-11T07:08:58.242Z,99281.38
2022-12-11T07:11:25.885Z,99283.13
2022-12-11T07:13:54.945Z,99277.72
2022-12-11T07:16:22.644Z,99287.75
2022-12-11T07:18:52.305Z,99293.97
2022-12-11T07:21:21.275Z,99301.63
2022-12-11T07:23:49.388Z,99302.31
2022-12-11T07:26:19.131Z,99305.19
2022-12-11T07:28:47.320Z,99297.75
2022-12-11T07:31:18.762Z,99304.91
2022-12-11T07:33:47.489Z,99272.22
2022-12-11T07:36:16.473Z,99313.19
2022-12-11T07:38:44.148Z,99201.88
2022-12-11T07:41:13.732Z,99301.13
2022-12-11T07:43:42.368Z,99299.69
2022-12-11T07:46:13.754Z,99304.66
2022-12-11T07:48:46.612Z,99307.34
2022-12-11T07:51:16.589Z,99307.81
2022-12-11T07:53:45.250Z,99309.41
2022-12-11T07:56:12.911Z,99312.09
2022-12-11T07:58:40.759Z,99307.81
2022-12-11T08:01:12.770Z,99314.81
2022-12-11T08:03:43.035Z,99322.25
2022-12-11T08:06:11.739Z,99317.19
2022-12-11T08:08:40.945Z,99316.72
2022-12-11T08:11:11.301Z,99325.13
2022-12-11T08:13:39.484Z,99323.84
2022-12-11T08:16:08.734Z,99309.72
2022-12-11T08:18:37.768Z,99329.44
2022-12-11T08:21:08.028Z,99328.00
2022-12-11T08:23:35.946Z,99326.44
2022-12-11T08:26:04.970Z,99322.59
2022-12-11T08:28:33.050Z,99327.22
2022-12-11T08:31:00.937Z,99318.31
2022-12-11T08:33:28.876Z,99325.44
2022-12-11T08:35:56.553Z,99320.03
2022-12-11T08:38:25.868Z,99316.00
2022-12-11T08:40:53.568Z,99315.44
2022-12-11T08:43:21.292Z,99317.63
2022-12-11T08:45:49.303Z,99317.94
2022-12-11T08:48:17.264Z,99329.09
2022-12-11T08:50:45.031Z,99330.69
2022-12-11T08:53:13.585Z,99326.25
2022-12-11T08:55:42.663Z,99325.59
2022-12-11T08:58:10.358Z,99318.78
2022-12-11T09:00:37.984Z,99316.09
2022-12-11T09:03:11.213Z,99316.56
2022-12-11T09:05:40.752Z,99324.03
2022-12-11T09:08:08.483Z,99332.13
2022-12-11T09:10:36.228Z,99326.56
2022-12-11T09:13:05.402Z,99329.59
2022-12-11T09:15:33.186Z,99320.69
2022-12-11T09:18:00.875Z,99254.59
2022-12-11T09:20:28.620Z,99321.47
2022-12-11T09:22:56.634Z,99324.81
2022-12-11T09:25:24.684Z,99317.34
2022-12-11T09:27:52.348Z,99314.00
2022-12-11T09:30:21.595Z,99319.88
2022-12-11T09:32:49.347Z,99320.34
2022-12-11T09:35:17.155Z,99325.44
2022-12-11T09:37:44.889Z,99324.66
2022-12-11T09:40:13.668Z,99327.50
2022-12-11T09:42:51.745Z,99333.56
2022-12-11T09:45:21.699Z,99327.69
2022-12-11T09:47:52.726Z,99324.00
2022-12-11T09:50:24.331Z,99337.22
2022-12-11T09:53:06.263Z,99322.44
2022-12-11T09:55:44.112Z,99321.16
2022-12-11T09:58:23.261Z,99324.00
2022-12-11T10:00:59.395Z,99312.91
2022-12-11T10:03:39.578Z,99319.41
2022-12-11T10:06:17.613Z,99316.06
2022-12-11T10:08:51.742Z,99308.47
2022-12-11T10:11:35.321Z,99312.38
2022-12-11T10:14:09.650Z,99306.69
2022-12-11T10:16:43.352Z,99305.41
2022-12-11T10:19:17.323Z,99306.34
2022-12-11T10:21:45.943Z,99304.72
2022-12-11T10:24:48.860Z,99297.22
2022-12-11T10:27:19.167Z,99284.84
2022-12-11T10:29:47.264Z,99249.25
2022-12-11T10:32:24.411Z,99285.78
2022-12-11T10:34:59.531Z,99288.97
2022-12-11T10:37:27.361Z,99279.63
2022-12-11T10:39:55.050Z,99283.84
2022-12-11T10:42:24.138Z,99276.03
2022-12-11T10:45:00.426Z,99268.88
2022-12-11T10:47:29.770Z,99264.53
2022-12-11T10:49:59.680Z,99270.22
2022-12-11T10:52:31.539Z,99269.25
2022-12-11T10:55:03.189Z,99256.03
2022-12-11T10:57:33.690Z,99266.06
2022-12-11T11:00:02.130Z,99261.13
2022-12-11T11:02:35.779Z,99249.91
2022-12-11T11:05:16.915Z,99252.53
2022-12-11T11:07:44.781Z,99242.44
2022-12-11T11:10:17.385Z,99241.00
2022-12-11T11:12:47.549Z,99238.97
2022-12-11T11:15:17.414Z,99226.63
2022-12-11T11:17:55.035Z,99236.59
2022-12-11T11:20:26.748Z,99231.31
2022-12-11T11:22:57.046Z,99168.31
2022-12-11T11:25:26.951Z,99231.44
2022-12-11T11:27:57.293Z,99229.66
2022-12-11T11:30:27.703Z,99241.63
2022-12-11T11:33:00.625Z,99231.91
2022-12-11T11:35:30.573Z,99230.13
2022-12-11T11:38:04.081Z,99222.97
2022-12-11T11:40:37.798Z,99215.84
2022-12-11T11:43:14.039Z,99213.97
2022-12-11T11:45:47.755Z,99196.25
2022-12-11T11:48:29.519Z,99219.44
2022-12-11T11:50:57.956Z,99222.28
2022-12-11T11:53:32.842Z,99222.59
2022-12-11T11:56:08.300Z,99218.28
2022-12-11T11:58:41.698Z,99212.41
2022-12-11T12:01:16.409Z,99218.44
2022-12-11T12:03:48.188Z,99218.09
2022-12-11T12:06:26.491Z,99217.59
2022-12-11T12:09:03.529Z,99205.44
2022-12-11T12:11:36.298Z,99214.94
2022-12-11T12:14:43.621Z,99217.63
2022-12-11T12:17:15.169Z,99207.25
2022-12-11T12:19:50.987Z,99194.56
2022-12-11T12:22:55.029Z,99208.03
2022-12-11T12:25:27.965Z,99200.84
2022-12-11T12:28:05.228Z,99186.59
2022-12-11T12:30:42.221Z,99206.06
2022-12-11T12:33:21.353Z,99208.81
2022-12-11T12:36:03.554Z,99204.19
2022-12-11T12:38:43.813Z,99205.44
2022-12-11T12:41:19.453Z,99203.69
2022-12-11T12:44:03.488Z,99099.44
2022-12-11T12:46:44.724Z,99203.66
2022-12-11T12:49:17.832Z,99200.84
2022-12-11T12:51:47.966Z,99103.91
2022-12-11T12:54:18.119Z,99203.38
2022-12-11T12:56:47.171Z,99195.16
2022-12-11T12:59:23.172Z,99189.16
2022-12-11T13:01:55.180Z,99197.28
2022-12-11T13:04:55.983Z,99196.03
2022-12-11T13:07:29.711Z,99189.16
2022-12-11T13:10:06.157Z,99190.00
2022-12-11T13:12:42.390Z,99187.13
2022-12-11T13:15:33.361Z,99181.06
2022-12-11T13:18:03.028Z,99178.19
2022-12-11T13:20:33.019Z,99186.09
2022-12-11T13:23:27.093Z,99183.16
2022-12-11T13:25:56.695Z,99182.38
2022-12-11T13:28:28.339Z,99177.97
2022-12-11T13:31:01.650Z,99186.22
2022-12-11T13:33:30.555Z,99179.22
2022-12-11T13:36:24.972Z,99182.25
2022-12-11T13:38:57.782Z,99181.34
2022-12-11T13:41:25.812Z,99185.72
2022-12-11T13:43:54.515Z,99188.44
2022-12-11T13:46:27.602Z,99194.56
2022-12-11T13:49:00.762Z,99141.06
2022-12-11T13:51:31.461Z,99199.84
2022-12-11T13:54:17.771Z,99200.28
2022-12-11T13:56:56.769Z,99201.84
2022-12-11T13:59:30.428Z,99205.22
2022-12-11T14:02:01.567Z,99203.38
2022-12-11T14:04:30.404Z,99197.28
2022-12-11T14:06:59.460Z,99197.94
2022-12-11T14:09:29.340Z,99210.59
2022-12-11T14:11:59.174Z,99206.97
2022-12-11T14:14:36.349Z,99212.16
2022-12-11T14:17:04.668Z,99202.91
2022-12-11T14:19:32.414Z,99212.59
2022-12-11T14:22:02.130Z,99214.47
2022-12-11T14:24:32.015Z,99211.44
2022-12-11T14:27:00.041Z,99220.03
2022-12-11T14:29:30.716Z,99217.84
2022-12-11T14:32:03.395Z,99213.22
2022-12-11T14:34:36.480Z,99202.41
2022-12-11T14:37:06.999Z,99213.63
2022-12-11T14:39:41.758Z,99216.13
2022-12-11T14:42:14.888Z,99221.16
2022-12-11T14:44:50.247Z,99223.47
2022-12-11T14:47:22.652Z,99226.31
2022-12-11T14:49:55.873Z,99229.94
2022-12-11T14:52:28.645Z,99088.66
2022-12-11T14:55:04.257Z,99237.53
2022-12-11T14:57:34.873Z,99243.94
2022-12-11T15:00:03.375Z,99244.19
2022-12-11T15:02:33.451Z,99247.81
2022-12-11T15:05:07.051Z,99241.34
2022-12-11T15:07:35.010Z,99228.78
2022-12-11T15:10:05.055Z,99243.25
2022-12-11T15:12:32.962Z,99246.16
2022-12-11T15:15:03.779Z,99245.03
2022-12-11T15:17:33.392Z,99243.94
2022-12-11T15:20:07.115Z,99250.97
2022-12-11T15:22:36.095Z,99240.56
2022-12-11T15:25:05.879Z,99242.22
2022-12-11T15:27:36.743Z,99232.22
2022-12-11T15:30:17.801Z,99244.91
2022-12-11T15:32:45.565Z,99248.72
2022-12-11T15:35:23.973Z,99245.72
2022-12-11T15:37:53.680Z,99247.94
2022-12-11T15:40:23.405Z,99243.06
2022-12-11T15:42:52.527Z,99245.16
2022-12-11T15:45:22.810Z,99191.88
2022-12-11T15:47:51.610Z,99240.25
2022-12-11T15:50:23.115Z,99240.72
2022-12-11T15:52:52.252Z,99246.31
2022-12-11T15:55:21.811Z,99204.78
2022-12-11T15:57:55.271Z,99249.53
2022-12-11T16:00:24.338Z,99246.97
2022-12-11T16:02:52.559Z,99243.94
2022-12-11T16:05:21.644Z,99246.66
2022-12-11T16:07:52.048Z,99245.25
2022-12-11T16:10:21.298Z,99241.13
2022-12-11T16:12:48.993Z,99251.44
2022-12-11T16:15:23.499Z,99244.34
2022-12-11T16:17:59.750Z,99240.72
2022-12-11T16:20:27.453Z,99244.00
2022-12-11T16:22:55.138Z,99241.50
2022-12-11T16:25:22.798Z,99238.59
2022-12-11T16:27:51.106Z,99236.84
2022-12-11T16:30:20.329Z,99239.06
2022-12-11T16:32:47.898Z,99236.19
2022-12-11T16:35:15.751Z,99241.00
2022-12-11T16:37:43.709Z,99242.19
2022-12-11T16:40:12.624Z,99237.59
2022-12-11T16:42:40.273Z,99234.78
2022-12-11T16:45:13.312Z,99230.69
2022-12-11T16:47:42.762Z,99236.31
2022-12-11T16:50:13.727Z,99231.06
2022-12-11T16:52:41.583Z,99233.91
2022-12-11T16:55:10.732Z,99233.28
2022-12-11T16:57:38.875Z,99232.13
2022-12-11T17:00:09.140Z,99228.47
2022-12-11T17:02:37.250Z,99230.97
2022-12-11T17:05:07.495Z,99235.22
2022-12-11T17:07:35.673Z,99233.16
2022-12-11T17:10:03.471Z,99239.63
2022-12-11T17:12:31.555Z,99236.09
2022-12-11T17:14:59.842Z,99237.97
2022-12-11T17:17:27.491Z,99239.84
2022-12-11T17:19:56.853Z,99238.59
2022-12-11T17:22:25.904Z,99243.69
2022-12-11T17:24:53.681Z,99242.91
2022-12-11T17:27:21.358Z,99239.00
2022-12-11T17:29:50.768Z,99243.13
2022-12-11T17:32:18.899Z,99239.66
2022-12-11T17:34:48.497Z,99242.66
2022-12-11T17:37:16.272Z,99242.81
2022-12-11T17:39:47.153Z,99213.19
2022-12-11T17:42:14.879Z,99234.88
2022-12-11T17:44:45.283Z,99243.63
2022-12-11T17:47:13.068Z,99242.06
2022-12-11T17:49:41.123Z,99238.66
2022-12-11T17:52:09.226Z,99238.81
2022-12-11T17:54:36.854Z,99236.59
2022-12-11T17:57:06.439Z,99234.50
2022-12-11T17:59:34.557Z,99225.91
2022-12-11T18:02:02.402Z,99240.38
2022-12-11T18:04:30.212Z,99239.75
2022-12-11T18:06:57.858Z,99226.16
2022-12-11T18:09:25.532Z,99231.78
2022-12-11T18:11:53.227Z,99231.66
2022-12-11T18:14:22.268Z,99231.00
2022-12-11T18:16:49.971Z,99230.16
2022-12-11T18:19:19.346Z,99236.00
2022-12-11T18:21:47.084Z,99232.81
2022-12-11T18:24:14.763Z,99233.84
2022-12-11T18:26:43.632Z,99228.72
2022-12-11T18:29:11.352Z,99233.19
2022-12-11T18:31:42.771Z,99235.16
2022-12-11T18:34:11.974Z,99232.72
2022-12-11T18:36:40.650Z,99239.53
2022-12-11T18:39:08.407Z,99233.50
2022-12-11T18:41:36.049Z,99237.25
2022-12-11T18:44:08.107Z,99238.72
2022-12-11T18:46:39.242Z,99242.50
2022-12-11T18:49:08.286Z,99243.28
2022-12-11T18:51:36.001Z,99236.00
2022-12-11T18:54:03.733Z,99245.72
2022-12-11T18:56:31.449Z,99243.00
2022-12-11T18:58:59.118Z,99244.13
2022-12-11T19:01:28.767Z,99243.00
2022-12-11T19:04:03.275Z,99234.78
2022-12-11T19:06:35.318Z,99232.13
2022-12-11T19:09:05.635Z,99231.19
2022-12-11T19:11:34.768Z,99185.53
2022-12-11T19:14:02.513Z,99226.91
2022-12-11T19:16:33.553Z,99228.50
2022-12-11T19:19:04.032Z,99237.53
2022-12-11T19:21:35.245Z,99229.44
2022-12-11T19:24:02.941Z,99225.78
2022-12-11T19:26:31.283Z,99230.03
2022-12-11T19:29:00.135Z,99222.72
2022-12-11T19:31:30.835Z,99224.28
2022-12-11T19:34:00.348Z,99219.91
2022-12-11T19:36:29.570Z,99227.56
2022-12-11T19:39:01.952Z,99229.09
2022-12-11T19:41:31.769Z,99224.50
2022-12-11T19:44:00.637Z,99225.63
2022-12-11T19:46:29.665Z,99228.81
2022-12-11T19:48:58.557Z,99235.16
2022-12-11T19:51:29.581Z,99222.88
2022-12-11T19:53:59.753Z,99225.59
2022-12-11T19:56:27.463Z,99218.34
2022-12-11T19:58:55.238Z,99222.81
2022-12-11T20:01:26.335Z,99217.16
2022-12-11T20:03:54.991Z,99219.06
2022-12-11T20:06:23.564Z,99219.19
2022-12-11T20:08:51.603Z,99211.25
2022-12-11T20:11:20.799Z,99214.78
2022-12-11T20:13:49.231Z,99217.19
2022-12-11T20:16:20.024Z,99228.13
2022-12-11T20:18:57.203Z,99223.66
2022-12-11T20:21:27.144Z,99178.78
2022-12-11T20:23:55.049Z,99212.53
2022-12-11T20:26:26.153Z,99216.47
2022-12-11T20:28:54.155Z,99213.34
2022-12-11T20:31:24.032Z,99222.91
2022-12-11T20:33:52.949Z,99215.44
2022-12-11T20:36:22.453Z,99223.91
2022-12-11T20:38:51.021Z,99216.88
2022-12-11T20:41:21.325Z,99217.16
2022-12-11T20:43:50.625Z,99213.34
2022-12-11T20:46:20.268Z,99223.00
2022-12-11T20:48:48.346Z,99225.91
2022-12-11T20:51:25.253Z,99236.09
2022-12-11T20:53:58.186Z,99218.31
2022-12-11T20:56:27.345Z,99232.09
2022-12-11T20:58:56.631Z,99229.88
2022-12-11T21:01:26.405Z,99227.75
2022-12-11T21:04:14.390Z,99226.78
2022-12-11T21:07:02.280Z,99223.34
2022-12-11T21:09:50.210Z,99226.81
2022-12-11T21:12:38.167Z,99228.25
2022-12-11T21:15:27.670Z,99229.41
2022-12-11T21:18:15.566Z,99226.97
2022-12-11T21:21:04.011Z,99234.53
2022-12-11T21:23:52.277Z,99237.91
2022-12-11T21:26:40.230Z,99237.44
2022-12-11T21:29:29.961Z,99240.56
2022-12-11T21:32:19.733Z,99227.66
2022-12-11T21:35:08.111Z,99239.13
2022-12-11T21:37:56.063Z,99239.25
2022-12-11T21:40:44.416Z,99240.06
2022-12-11T21:43:32.747Z,99244.69
2022-12-11T21:46:22.680Z,99237.31
2022-12-11T21:49:12.087Z,99243.38
2022-12-11T21:52:00.406Z,99248.00
2022-12-11T21:54:49.209Z,99247.09
2022-12-11T21:57:37.165Z,99252.31
2022-12-11T22:00:25.376Z,99249.16
2022-12-11T22:03:13.329Z,99251.03
2022-12-11T22:06:02.615Z,99251.91
2022-12-11T22:08:51.452Z,99250.50
2022-12-11T22:11:40.127Z,99252.44
2022-12-11T22:14:30.712Z,99217.22
2022-12-11T22:17:20.620Z,99256.44
2022-12-11T22:20:10.009Z,99251.19
2022-12-11T22:22:59.469Z,99246.56
2022-12-11T22:25:48.063Z,99258.41
2022-12-11T22:28:36.240Z,99261.91
2022-12-11T22:31:27.819Z,99266.69
2022-12-11T22:34:15.826Z,99268.88
2022-12-11T22:37:03.800Z,99268.09
2022-12-11T22:39:53.071Z,99266.53
2022-12-11T22:42:41.406Z,99275.78
2022-12-11T22:45:29.338Z,99273.88
2022-12-11T22:48:17.313Z,99267.34
2022-12-11T22:51:06.755Z,99273.19
2022-12-11T22:53:54.789Z,99263.47
2022-12-11T22:56:44.114Z,99265.38
2022-12-11T22:59:32.137Z,99261.28
2022-12-11T23:02:20.141Z,99264.41
2022-12-11T23:05:09.342Z,99269.03
2022-12-11T23:07:57.537Z,99265.06
2022-12-11T23:10:46.247Z,99266.19
2022-12-11T23:13:35.929Z,99268.75
2022-12-11T23:16:26.645Z,99268.75
2022-12-11T23:19:18.519Z,99268.09
2022-12-11T23:22:08.971Z,99266.69
2022-12-11T23:24:56.909Z,99255.13
2022-12-11T23:27:45.764Z,99227.75
2022-12-11T23:30:35.093Z,99262.03
2022-12-11T23:33:23.840Z,99266.66
2022-12-11T23:36:12.073Z,99253.03
2022-12-11T23:39:00.174Z,99259.56
2022-12-11T23:41:48.236Z,99260.69
2022-12-11T23:44:37.080Z,99257.56
2022-12-11T23:47:26.432Z,99260.44
2022-12-11T23:50:14.371Z,99256.91
2022-12-11T23:53:02.334Z,99256.25
2022-12-11T23:55:50.245Z,99257.88
2022-12-11T23:58:39.262Z,99262.63
